Time;durP1;ratioP1;P1;durP2;ratioP2;P2;SDS_P1;SDS_P2;PMS_P1;PMS_P2;Temp;Humidity;BMP_temperature;BMP_pressure;BME280_temperature;BME280_humidity;BME280_pressure;Samples;Min_cycle;Max_cycle;Signal;HPM_P1;HPM_P2
2022/09/22 00:03:14;;;;;;;1.52;1.00;;;;;;;;;;10442597;28;20049;-77
2022/09/22 00:08:17;;;;;;;1.23;0.95;;;;;;;;;;10456263;28;20042;-77
2022/09/22 00:13:21;;;;;;;0.95;0.80;;;;;;;;;;10458401;28;20044;-78
2022/09/22 00:18:26;;;;;;;0.82;0.70;;;;;;;;;;10484447;28;20036;-78
2022/09/22 00:23:30;;;;;;;1.10;0.90;;;;;;;;;;10442305;28;20389;-76
2022/09/22 00:28:34;;;;;;;1.25;0.85;;;;;;;;;;10449764;28;20099;-76
2022/09/22 00:33:41;;;;;;;1.10;0.70;;;;;;;;;;10454809;28;20040;-80
2022/09/22 00:38:45;;;;;;;2.05;0.70;;;;;;;;;;10477053;28;20048;-77
2022/09/22 00:43:51;;;;;;;2.35;1.10;;;;;;;;;;10473365;28;20492;-77
2022/09/22 00:48:58;;;;;;;1.80;0.90;;;;;;;;;;10445403;28;20070;-76
2022/09/22 00:54:04;;;;;;;1.90;0.70;;;;;;;;;;10468810;28;20523;-76
2022/09/22 00:59:12;;;;;;;2.38;0.77;;;;;;;;;;10478162;28;20141;-76
2022/09/22 01:04:17;;;;;;;1.50;0.70;;;;;;;;;;10449224;28;20071;-82
2022/09/22 01:09:23;;;;;;;1.77;0.90;;;;;;;;;;10440751;28;20107;-77
2022/09/22 01:14:38;;;;;;;3.67;0.90;;;;;;;;;;10463785;28;20039;-79
2022/09/22 01:20:09;;;;;;;2.70;0.70;;;;;;;;;;10410239;28;20048;-77
2022/09/22 01:25:32;;;;;;;0.70;0.70;;;;;;;;;;10421579;28;20532;-77
2022/09/22 01:30:40;;;;;;;1.05;0.68;;;;;;;;;;10439196;28;20045;-80
2022/09/22 01:35:54;;;;;;;0.68;0.57;;;;;;;;;;10438619;28;20040;-77
2022/09/22 01:41:06;;;;;;;0.60;0.60;;;;;;;;;;10420544;28;20574;-76
2022/09/22 01:46:17;;;;;;;0.60;0.60;;;;;;;;;;10441804;28;20059;-76
2022/09/22 01:51:24;;;;;;;0.63;0.60;;;;;;;;;;10439745;28;20406;-78
2022/09/22 01:56:29;;;;;;;0.40;0.40;;;;;;;;;;10419331;28;20036;-77
2022/09/22 02:01:38;;;;;;;1.33;0.60;;;;;;;;;;10420144;28;20045;-77
2022/09/22 02:06:48;;;;;;;0.45;0.45;;;;;;;;;;10438220;28;20558;-76
2022/09/22 02:11:51;;;;;;;1.20;0.63;;;;;;;;;;10420064;28;20048;-79
2022/09/22 02:16:56;;;;;;;0.80;0.70;;;;;;;;;;10419272;28;20075;-77
2022/09/22 02:22:00;;;;;;;0.47;0.47;;;;;;;;;;10434866;28;20052;-76
2022/09/22 02:27:08;;;;;;;0.40;0.40;;;;;;;;;;10436636;28;20094;-78
2022/09/22 02:32:16;;;;;;;0.70;0.60;;;;;;;;;;10419200;28;20041;-82
2022/09/22 02:37:24;;;;;;;0.57;0.50;;;;;;;;;;10418501;28;20040;-78
2022/09/22 02:42:30;;;;;;;1.85;0.55;;;;;;;;;;10435967;28;20033;-77
2022/09/22 02:47:40;;;;;;;0.57;0.52;;;;;;;;;;10436125;28;20044;-81
2022/09/22 02:52:43;;;;;;;2.55;0.70;;;;;;;;;;10444567;28;20049;-77
2022/09/22 02:57:46;;;;;;;0.75;0.50;;;;;;;;;;10417343;28;20045;-77
2022/09/22 03:02:51;;;;;;;2.38;0.93;;;;;;;;;;10434422;28;20048;-82
2022/09/22 03:07:54;;;;;;;2.78;0.60;;;;;;;;;;10471396;28;20060;-80
2022/09/22 03:12:57;;;;;;;1.30;0.60;;;;;;;;;;10443810;28;20047;-76
2022/09/22 03:18:18;;;;;;;0.68;0.45;;;;;;;;;;10463074;28;20029;-77
2022/09/22 03:23:21;;;;;;;0.65;0.65;;;;;;;;;;10435169;28;20045;-78
2022/09/22 03:28:24;;;;;;;0.70;0.70;;;;;;;;;;10447027;28;20055;-78
2022/09/22 03:33:29;;;;;;;0.50;0.50;;;;;;;;;;10442416;28;20052;-77
2022/09/22 03:38:33;;;;;;;0.73;0.73;;;;;;;;;;10468126;28;20033;-77
2022/09/22 03:43:36;;;;;;;0.93;0.60;;;;;;;;;;10476531;28;20504;-77
2022/09/22 03:48:41;;;;;;;0.50;0.50;;;;;;;;;;10476730;28;20032;-77
2022/09/22 03:53:49;;;;;;;0.40;0.40;;;;;;;;;;10475527;28;20048;-77
2022/09/22 03:58:53;;;;;;;0.63;0.63;;;;;;;;;;10466933;28;20048;-77
2022/09/22 04:03:57;;;;;;;0.50;0.50;;;;;;;;;;10465658;28;20056;-77
2022/09/22 04:09:01;;;;;;;0.60;0.60;;;;;;;;;;10471119;28;20040;-77
2022/09/22 04:14:04;;;;;;;0.63;0.50;;;;;;;;;;10450144;28;20037;-77
2022/09/22 04:19:09;;;;;;;0.60;0.52;;;;;;;;;;10448928;28;20098;-77
2022/09/22 04:24:13;;;;;;;0.70;0.70;;;;;;;;;;10454860;28;20047;-77
2022/09/22 04:29:16;;;;;;;3.22;0.85;;;;;;;;;;10462694;28;20128;-76
2022/09/22 04:34:22;;;;;;;0.82;0.77;;;;;;;;;;10448608;28;20068;-77
2022/09/22 04:39:27;;;;;;;0.50;0.50;;;;;;;;;;10428768;28;20040;-77
2022/09/22 04:44:30;;;;;;;0.65;0.60;;;;;;;;;;10452902;28;20068;-77
2022/09/22 04:49:38;;;;;;;0.68;0.63;;;;;;;;;;10459015;28;20116;-76
2022/09/22 04:54:41;;;;;;;1.10;0.60;;;;;;;;;;10460708;28;20548;-77
2022/09/22 04:59:44;;;;;;;1.42;0.70;;;;;;;;;;10460026;28;20048;-77
2022/09/22 05:04:49;;;;;;;2.90;0.70;;;;;;;;;;10468272;28;20044;-77
2022/09/22 05:09:52;;;;;;;1.45;0.75;;;;;;;;;;10462475;28;20481;-77
2022/09/22 05:14:57;;;;;;;2.05;0.50;;;;;;;;;;10480564;28;20071;-77
2022/09/22 05:20:02;;;;;;;0.88;0.57;;;;;;;;;;10459682;28;20510;-77
2022/09/22 05:25:07;;;;;;;0.65;0.57;;;;;;;;;;10467118;28;20036;-76
2022/09/22 05:30:11;;;;;;;0.70;0.70;;;;;;;;;;10460108;28;20040;-77
2022/09/22 05:35:18;;;;;;;0.98;0.90;;;;;;;;;;10479768;28;20032;-77
2022/09/22 05:40:23;;;;;;;1.30;1.20;;;;;;;;;;10449951;28;20056;-77
2022/09/22 05:45:27;;;;;;;0.87;0.87;;;;;;;;;;10474918;28;20837;-77
2022/09/22 05:50:31;;;;;;;0.80;0.80;;;;;;;;;;10476524;28;20032;-78
2022/09/22 05:55:35;;;;;;;2.05;1.15;;;;;;;;;;10467324;28;20060;-78
2022/09/22 06:00:38;;;;;;;1.48;1.30;;;;;;;;;;10466623;28;20060;-78
2022/09/22 06:05:44;;;;;;;2.17;1.40;;;;;;;;;;10456205;28;20400;-78
2022/09/22 06:10:50;;;;;;;2.27;1.40;;;;;;;;;;10468609;28;20910;-78
2022/09/22 06:15:53;;;;;;;3.00;1.20;;;;;;;;;;10457673;28;20406;-78
2022/09/22 06:20:58;;;;;;;1.48;1.17;;;;;;;;;;10479732;28;20044;-78
2022/09/22 06:26:02;;;;;;;2.15;1.20;;;;;;;;;;10438436;28;20044;-79
2022/09/22 06:31:05;;;;;;;2.42;0.75;;;;;;;;;;10456838;28;20132;-78
2022/09/22 06:36:10;;;;;;;1.65;1.10;;;;;;;;;;10458695;28;20048;-78
2022/09/22 06:41:13;;;;;;;0.77;0.77;;;;;;;;;;10467005;28;20052;-78
2022/09/22 06:46:19;;;;;;;2.70;0.90;;;;;;;;;;10454806;28;20070;-78
2022/09/22 06:51:25;;;;;;;0.80;0.80;;;;;;;;;;10462139;28;20037;-78
2022/09/22 06:56:28;;;;;;;1.40;1.00;;;;;;;;;;10458234;28;20400;-79
2022/09/22 07:01:32;;;;;;;1.60;1.10;;;;;;;;;;10454107;28;20036;-79
2022/09/22 07:06:39;;;;;;;0.90;0.90;;;;;;;;;;10458307;28;20044;-78
2022/09/22 07:11:42;;;;;;;0.93;0.88;;;;;;;;;;10469451;28;20053;-78
2022/09/22 07:16:45;;;;;;;0.93;0.90;;;;;;;;;;10459704;28;20044;-78
2022/09/22 07:21:50;;;;;;;1.38;1.10;;;;;;;;;;10479304;28;20122;-79
2022/09/22 07:26:54;;;;;;;1.10;0.80;;;;;;;;;;10460963;28;20036;-79
2022/09/22 07:31:58;;;;;;;2.00;1.10;;;;;;;;;;10456912;28;20067;-79
2022/09/22 07:37:03;;;;;;;1.05;0.88;;;;;;;;;;10444917;28;20132;-79
2022/09/22 07:42:06;;;;;;;1.60;1.20;;;;;;;;;;10438253;28;20615;-81
2022/09/22 07:47:09;;;;;;;3.58;1.73;;;;;;;;;;10443725;28;20041;-80
2022/09/22 07:52:14;;;;;;;1.75;1.45;;;;;;;;;;10448885;28;20040;-79
2022/09/22 07:57:18;;;;;;;1.88;1.13;;;;;;;;;;10469507;28;20040;-77
2022/09/22 08:02:26;;;;;;;0.90;0.80;;;;;;;;;;10485167;28;20064;-80
2022/09/22 08:07:35;;;;;;;0.93;0.77;;;;;;;;;;10492419;28;20889;-81
2022/09/22 08:12:38;;;;;;;1.13;0.70;;;;;;;;;;10468675;28;20044;-80
2022/09/22 08:17:42;;;;;;;2.35;1.13;;;;;;;;;;10466228;28;20568;-80
2022/09/22 08:22:52;;;;;;;1.52;1.08;;;;;;;;;;10472172;28;20075;-77
2022/09/22 08:27:55;;;;;;;1.25;0.80;;;;;;;;;;10489740;28;20143;-80
2022/09/22 08:33:00;;;;;;;1.92;1.30;;;;;;;;;;10481891;28;20047;-79
2022/09/22 08:38:05;;;;;;;1.95;1.40;;;;;;;;;;10475495;28;20102;-78
2022/09/22 08:43:13;;;;;;;1.50;1.20;;;;;;;;;;10483451;28;20047;-78
2022/09/22 08:53:47;;;;;;;3.55;1.00;;;;;;;;;;10455671;28;20284;-79
2022/09/22 08:58:57;;;;;;;1.30;0.85;;;;;;;;;;10460184;28;20535;-79
2022/09/22 09:04:31;;;;;;;1.50;1.20;;;;;;;;;;10465068;28;20056;-78
2022/09/22 09:09:46;;;;;;;0.95;0.88;;;;;;;;;;10453020;28;20048;-78
2022/09/22 09:15:07;;;;;;;0.90;0.90;;;;;;;;;;10443431;28;20067;-78
2022/09/22 09:20:17;;;;;;;3.95;0.70;;;;;;;;;;10481759;28;20056;-77
2022/09/22 09:25:34;;;;;;;1.20;0.80;;;;;;;;;;10481224;28;20056;-77
2022/09/22 09:30:42;;;;;;;3.03;1.50;;;;;;;;;;10454629;28;20047;-77
2022/09/22 09:35:49;;;;;;;1.55;1.10;;;;;;;;;;10474573;28;20055;-77
2022/09/22 09:41:00;;;;;;;4.05;1.25;;;;;;;;;;10446086;28;20543;-77
2022/09/22 09:46:15;;;;;;;3.08;1.20;;;;;;;;;;10448880;28;20045;-77
2022/09/22 09:51:20;;;;;;;1.20;0.70;;;;;;;;;;10452138;28;20041;-77
2022/09/22 09:56:27;;;;;;;1.67;1.08;;;;;;;;;;10471543;28;20052;-78
2022/09/22 10:01:31;;;;;;;2.53;0.82;;;;;;;;;;10462317;28;20049;-77
2022/09/22 10:06:34;;;;;;;1.67;0.70;;;;;;;;;;10437811;28;20413;-80
2022/09/22 10:11:39;;;;;;;2.85;0.93;;;;;;;;;;10439590;28;20037;-78
2022/09/22 10:16:51;;;;;;;0.90;0.80;;;;;;;;;;10481821;28;20047;-79
2022/09/22 10:22:26;;;;;;;1.45;0.82;;;;;;;;;;10474006;28;20382;-77
2022/09/22 10:27:32;;;;;;;1.45;1.00;;;;;;;;;;10470892;28;20044;-77
2022/09/22 10:32:35;;;;;;;1.80;0.80;;;;;;;;;;10452739;28;20040;-77
2022/09/22 10:37:38;;;;;;;0.63;0.60;;;;;;;;;;10436800;28;20047;-77
2022/09/22 10:42:46;;;;;;;0.88;0.60;;;;;;;;;;10459553;28;20132;-77
2022/09/22 10:47:56;;;;;;;2.53;0.82;;;;;;;;;;10456558;28;20060;-78
2022/09/22 10:53:12;;;;;;;1.25;0.50;;;;;;;;;;10450933;28;20048;-77
2022/09/22 10:58:44;;;;;;;0.30;0.22;;;;;;;;;;10441443;28;20853;-77
2022/09/22 11:04:10;;;;;;;0.73;0.30;;;;;;;;;;10460529;28;20060;-78
2022/09/22 11:14:44;;;;;;;0.22;0.20;;;;;;;;;;10415227;28;20579;-77
2022/09/22 11:20:11;;;;;;;0.60;0.20;;;;;;;;;;10453583;28;20045;-77
2022/09/22 11:25:27;;;;;;;0.50;0.50;;;;;;;;;;10442383;28;20587;-77
2022/09/22 11:30:34;;;;;;;;;;;;;;;;;;10428841;28;20695;-78
2022/09/22 11:35:59;;;;;;;1.65;0.35;;;;;;;;;;10426764;28;20564;-77
2022/09/22 11:41:20;;;;;;;0.70;0.28;;;;;;;;;;10436321;28;20045;-79
2022/09/22 11:46:32;;;;;;;0.88;0.40;;;;;;;;;;10442816;28;20040;-77
2022/09/22 11:51:55;;;;;;;1.35;0.30;;;;;;;;;;10460136;28;20064;-78
2022/09/22 11:57:03;;;;;;;0.52;0.32;;;;;;;;;;10464066;28;20094;-77
2022/09/22 12:02:16;;;;;;;0.20;0.20;;;;;;;;;;10487409;28;20062;-78
2022/09/22 12:07:24;;;;;;;0.60;0.30;;;;;;;;;;10483963;28;20100;-78
2022/09/22 12:12:30;;;;;;;0.75;0.20;;;;;;;;;;10464841;28;20703;-78
2022/09/22 12:17:40;;;;;;;1.00;0.40;;;;;;;;;;10466413;28;20512;-77
2022/09/22 12:23:12;;;;;;;0.40;0.30;;;;;;;;;;10458412;28;20128;-82
2022/09/22 12:28:21;;;;;;;0.85;0.28;;;;;;;;;;10473871;28;20056;-77
2022/09/22 12:33:26;;;;;;;1.83;0.40;;;;;;;;;;10471993;28;20060;-77
2022/09/22 12:38:31;;;;;;;0.52;0.17;;;;;;;;;;10474220;28;20056;-77
2022/09/22 12:43:35;;;;;;;1.63;0.30;;;;;;;;;;10473765;28;20044;-78
2022/09/22 12:48:43;;;;;;;0.95;0.25;;;;;;;;;;10460252;28;20043;-78
2022/09/22 12:53:46;;;;;;;1.48;0.40;;;;;;;;;;10484775;28;20045;-78
2022/09/22 12:58:49;;;;;;;0.52;0.40;;;;;;;;;;10467144;28;20076;-78
2022/09/22 13:04:14;;;;;;;0.70;0.38;;;;;;;;;;10466376;28;20044;-78
2022/09/22 13:09:21;;;;;;;1.73;0.28;;;;;;;;;;10506022;28;20674;-78
2022/09/22 13:14:56;;;;;;;0.22;0.20;;;;;;;;;;10492799;28;20044;-79
2022/09/22 13:20:06;;;;;;;1.23;0.60;;;;;;;;;;10480621;28;20295;-78
2022/09/22 13:25:21;;;;;;;1.05;0.30;;;;;;;;;;10464670;28;20045;-76
2022/09/22 13:30:24;;;;;;;0.73;0.10;;;;;;;;;;10472212;28;20063;-78
2022/09/22 13:35:32;;;;;;;0.20;0.20;;;;;;;;;;10468342;28;20063;-78
2022/09/22 13:40:36;;;;;;;0.70;0.30;;;;;;;;;;10465724;28;20037;-78
2022/09/22 13:45:39;;;;;;;0.98;0.20;;;;;;;;;;10477355;28;20052;-78
2022/09/22 13:50:50;;;;;;;0.55;0.38;;;;;;;;;;10473270;28;20040;-78
2022/09/22 13:55:53;;;;;;;0.70;0.32;;;;;;;;;;10454665;28;20053;-76
2022/09/22 14:00:59;;;;;;;0.88;0.30;;;;;;;;;;10447607;28;20098;-76
2022/09/22 14:06:21;;;;;;;0.88;0.20;;;;;;;;;;10474475;28;20280;-76
2022/09/22 14:11:28;;;;;;;0.55;0.30;;;;;;;;;;10458535;28;20033;-76
2022/09/22 14:16:34;;;;;;;0.68;0.30;;;;;;;;;;10453536;28;20273;-76
2022/09/22 14:21:49;;;;;;;1.83;0.80;;;;;;;;;;10462287;28;20037;-76
2022/09/22 14:26:53;;;;;;;0.90;0.22;;;;;;;;;;10479877;28;20060;-76
2022/09/22 14:32:04;;;;;;;1.80;0.52;;;;;;;;;;10477968;28;20041;-76
2022/09/22 14:37:21;;;;;;;0.65;0.40;;;;;;;;;;10471282;28;20049;-75
2022/09/22 14:42:27;;;;;;;0.97;0.30;;;;;;;;;;10478470;28;20060;-76
2022/09/22 14:47:38;;;;;;;0.50;0.22;;;;;;;;;;10441095;28;20275;-76
2022/09/22 14:52:51;;;;;;;0.85;0.20;;;;;;;;;;10462200;28;20094;-75
2022/09/22 14:57:55;;;;;;;0.30;0.20;;;;;;;;;;10470540;28;20075;-74
2022/09/22 15:02:58;;;;;;;0.30;0.20;;;;;;;;;;10462562;28;20051;-77
2022/09/22 15:08:04;;;;;;;0.57;0.20;;;;;;;;;;10467637;28;20052;-74
2022/09/22 15:13:18;;;;;;;;;;;;;;;;;;10458904;28;20447;-75
2022/09/22 15:18:21;;;;;;;0.30;0.30;;;;;;;;;;10477192;28;19920;-74
2022/09/22 15:23:30;;;;;;;1.10;0.20;;;;;;;;;;10477177;28;20044;-76
2022/09/22 15:28:36;;;;;;;1.13;0.38;;;;;;;;;;10466690;28;20052;-72
2022/09/22 15:33:40;;;;;;;0.15;0.10;;;;;;;;;;10460864;28;20044;-75
2022/09/22 15:38:44;;;;;;;0.73;0.40;;;;;;;;;;10434597;28;20513;-77
2022/09/22 15:43:48;;;;;;;0.52;0.30;;;;;;;;;;10473807;28;20044;-75
2022/09/22 15:48:51;;;;;;;0.32;0.20;;;;;;;;;;10451962;28;20479;-75
2022/09/22 15:53:56;;;;;;;0.35;0.20;;;;;;;;;;10469797;28;20063;-75
2022/09/22 15:59:00;;;;;;;1.48;0.30;;;;;;;;;;10459654;28;20397;-75
2022/09/22 16:04:04;;;;;;;0.55;0.20;;;;;;;;;;10429563;28;20063;-75
2022/09/22 16:09:12;;;;;;;0.22;0.20;;;;;;;;;;10455959;28;20071;-75
2022/09/22 16:14:16;;;;;;;0.82;0.40;;;;;;;;;;10467016;28;20500;-78
2022/09/22 16:19:19;;;;;;;0.98;0.50;;;;;;;;;;10457739;28;20045;-77
2022/09/22 16:24:26;;;;;;;1.38;0.35;;;;;;;;;;10468168;28;20048;-77
2022/09/22 16:29:30;;;;;;;0.57;0.35;;;;;;;;;;10474077;28;20037;-76
2022/09/22 16:34:34;;;;;;;0.30;0.30;;;;;;;;;;10441258;28;20075;-76
2022/09/22 16:39:39;;;;;;;0.30;0.22;;;;;;;;;;10433981;28;20535;-81
2022/09/22 16:44:42;;;;;;;0.93;0.35;;;;;;;;;;10474310;28;20558;-76
2022/09/22 16:49:46;;;;;;;0.73;0.40;;;;;;;;;;10466357;28;20078;-76
2022/09/22 16:54:51;;;;;;;0.50;0.22;;;;;;;;;;10459191;28;20045;-76
2022/09/22 16:59:55;;;;;;;0.73;0.30;;;;;;;;;;10455163;28;20043;-76
2022/09/22 17:04:59;;;;;;;1.95;0.30;;;;;;;;;;10447899;28;20060;-76
2022/09/22 17:10:04;;;;;;;0.35;0.30;;;;;;;;;;10446312;28;20495;-81
2022/09/22 17:15:10;;;;;;;1.17;0.30;;;;;;;;;;10471061;28;20055;-76
2022/09/22 17:20:14;;;;;;;0.40;0.40;;;;;;;;;;10457546;28;20389;-76
2022/09/22 17:25:18;;;;;;;1.02;0.47;;;;;;;;;;10438024;28;20052;-77
2022/09/22 17:30:22;;;;;;;1.08;0.73;;;;;;;;;;10465273;28;20036;-77
2022/09/22 17:35:25;;;;;;;1.13;0.70;;;;;;;;;;10470091;28;20044;-76
2022/09/22 17:40:30;;;;;;;2.00;1.30;;;;;;;;;;10480877;28;20055;-76
2022/09/22 17:45:33;;;;;;;1.77;1.30;;;;;;;;;;10450751;28;20041;-77
2022/09/22 17:56:03;;;;;;;3.08;1.42;;;;;;;;;;10473694;28;20047;-76
2022/09/22 18:01:07;;;;;;;2.78;1.77;;;;;;;;;;10451920;28;20529;-76
2022/09/22 18:06:13;;;;;;;3.88;1.90;;;;;;;;;;10469943;28;20416;-77
2022/09/22 18:11:18;;;;;;;3.78;1.92;;;;;;;;;;10482247;28;20515;-77
2022/09/22 18:16:28;;;;;;;4.00;2.17;;;;;;;;;;10472443;28;20053;-77
2022/09/22 18:21:32;;;;;;;2.75;2.00;;;;;;;;;;10488600;28;20052;-79
2022/09/22 18:26:41;;;;;;;3.63;2.20;;;;;;;;;;10481048;28;20075;-77
2022/09/22 18:31:45;;;;;;;3.97;2.22;;;;;;;;;;10479882;28;20066;-77
2022/09/22 18:36:48;;;;;;;3.92;2.28;;;;;;;;;;10478834;28;20067;-76
2022/09/22 18:41:54;;;;;;;6.05;3.22;;;;;;;;;;10476767;28;20497;-76
2022/09/22 18:47:02;;;;;;;4.90;3.30;;;;;;;;;;10457644;28;20047;-76
2022/09/22 18:52:06;;;;;;;6.80;3.47;;;;;;;;;;10469595;28;20400;-77
2022/09/22 18:57:12;;;;;;;7.47;4.10;;;;;;;;;;10462264;28;20044;-77
2022/09/22 19:02:15;;;;;;;8.57;3.95;;;;;;;;;;10467757;28;20048;-77
2022/09/22 19:12:44;;;;;;;5.53;3.40;;;;;;;;;;10461767;28;20119;-77
2022/09/22 19:17:48;;;;;;;4.03;2.67;;;;;;;;;;10459343;28;20052;-77
2022/09/22 19:22:52;;;;;;;4.70;2.80;;;;;;;;;;10469411;28;20127;-76
2022/09/22 19:28:00;;;;;;;4.25;2.72;;;;;;;;;;10442317;28;20044;-77
2022/09/22 19:33:03;;;;;;;4.55;2.95;;;;;;;;;;10456982;28;20051;-77
2022/09/22 19:38:07;;;;;;;4.55;2.85;;;;;;;;;;10464879;28;20047;-77
2022/09/22 19:43:12;;;;;;;6.00;3.65;;;;;;;;;;10463382;28;20079;-77
2022/09/22 19:48:15;;;;;;;6.65;3.90;;;;;;;;;;10464257;28;20048;-77
2022/09/22 19:53:18;;;;;;;6.45;3.75;;;;;;;;;;10463004;28;20044;-77
2022/09/22 19:58:23;;;;;;;6.03;3.47;;;;;;;;;;10472233;28;20135;-75
2022/09/22 20:03:26;;;;;;;5.60;3.20;;;;;;;;;;10471616;28;20626;-77
2022/09/22 20:08:30;;;;;;;5.78;3.10;;;;;;;;;;10465711;28;20049;-76
2022/09/22 20:18:55;;;;;;;5.05;3.05;;;;;;;;;;10435543;28;20063;-76
2022/09/22 20:23:58;;;;;;;8.43;3.33;;;;;;;;;;10458010;28;20041;-76
2022/09/22 20:29:03;;;;;;;6.22;3.45;;;;;;;;;;10464035;28;20045;-76
2022/09/22 20:34:07;;;;;;;3.85;2.70;;;;;;;;;;10476188;28;20041;-75
2022/09/22 20:39:14;;;;;;;4.65;2.70;;;;;;;;;;10485915;28;20417;-78
2022/09/22 20:44:18;;;;;;;5.03;2.95;;;;;;;;;;10455290;28;20051;-73
2022/09/22 20:49:22;;;;;;;3.38;2.38;;;;;;;;;;10468584;28;20041;-76
2022/09/22 20:54:25;;;;;;;3.75;2.30;;;;;;;;;;10473341;28;20049;-77
2022/09/22 20:59:30;;;;;;;2.63;2.08;;;;;;;;;;10471395;28;20049;-77
2022/09/22 21:04:33;;;;;;;3.97;2.20;;;;;;;;;;10431116;28;20062;-75
2022/09/22 21:15:03;;;;;;;4.50;2.42;;;;;;;;;;10482716;28;20040;-76
2022/09/22 21:20:09;;;;;;;4.05;2.55;;;;;;;;;;10457690;28;20041;-76
2022/09/22 21:25:13;;;;;;;5.20;2.35;;;;;;;;;;10443334;28;20043;-76
2022/09/22 21:30:17;;;;;;;4.18;2.40;;;;;;;;;;10478411;28;20492;-76
2022/09/22 21:35:20;;;;;;;4.05;2.70;;;;;;;;;;10465392;28;20040;-76
2022/09/22 21:40:24;;;;;;;4.28;2.85;;;;;;;;;;10447500;28;20037;-76
2022/09/22 21:45:28;;;;;;;4.57;2.35;;;;;;;;;;10478167;28;20139;-76
2022/09/22 21:50:32;;;;;;;8.30;2.92;;;;;;;;;;10478237;28;20055;-76
2022/09/22 21:55:36;;;;;;;4.45;2.47;;;;;;;;;;10462895;28;20044;-76
2022/09/22 22:00:41;;;;;;;3.22;2.25;;;;;;;;;;10478634;28;20523;-76
2022/09/22 22:05:58;;;;;;;4.47;2.50;;;;;;;;;;10479608;28;20059;-76
2022/09/22 22:11:04;;;;;;;2.67;2.10;;;;;;;;;;10479323;28;20044;-76
2022/09/22 22:16:10;;;;;;;;;;;;;;;;;;10478715;28;20132;-76
2022/09/22 22:21:15;;;;;;;3.42;2.20;;;;;;;;;;10455157;28;19978;-76
2022/09/22 22:26:19;;;;;;;2.50;1.85;;;;;;;;;;10475802;28;20107;-76
2022/09/22 22:31:24;;;;;;;4.18;1.55;;;;;;;;;;10468422;28;20504;-76
2022/09/22 22:36:28;;;;;;;3.38;1.65;;;;;;;;;;10469760;28;20048;-76
2022/09/22 22:41:31;;;;;;;2.50;1.52;;;;;;;;;;10460683;28;20037;-76
2022/09/22 22:46:36;;;;;;;3.28;1.67;;;;;;;;;;10477487;28;20447;-76
2022/09/22 22:51:41;;;;;;;1.95;1.60;;;;;;;;;;10461765;28;20512;-76
2022/09/22 22:56:45;;;;;;;1.77;1.58;;;;;;;;;;10475644;28;20067;-77
2022/09/22 23:01:52;;;;;;;2.10;1.40;;;;;;;;;;10467289;28;20044;-76
2022/09/22 23:06:56;;;;;;;1.65;1.50;;;;;;;;;;10447830;28;20072;-76
2022/09/22 23:11:59;;;;;;;4.13;1.30;;;;;;;;;;10455569;28;20032;-76
2022/09/22 23:17:03;;;;;;;2.83;1.50;;;;;;;;;;10473177;28;20064;-76
2022/09/22 23:22:07;;;;;;;1.95;1.30;;;;;;;;;;10454131;28;20044;-76
2022/09/22 23:27:10;;;;;;;1.73;1.20;;;;;;;;;;10466406;28;20098;-76
2022/09/22 23:32:14;;;;;;;1.42;1.00;;;;;;;;;;10441957;28;20036;-76
2022/09/22 23:37:18;;;;;;;1.70;1.60;;;;;;;;;;10467848;28;20082;-76
2022/09/22 23:42:22;;;;;;;1.63;1.23;;;;;;;;;;10476342;28;20113;-76
2022/09/22 23:47:26;;;;;;;3.17;1.85;;;;;;;;;;10467478;28;20036;-76
2022/09/22 23:52:30;;;;;;;1.52;1.08;;;;;;;;;;10472864;28;20044;-76
2022/09/22 23:57:33;;;;;;;3.00;1.40;;;;;;;;;;10477957;28;20101;-76
